GLD1794 SBBR-SBUL
Flight info
| Callsign | GLD1794 |
|---|---|
| Flight time | 0h 34m |
| Altitude | 24000 |
| Route | LUZ DCT EDMIN |
| Aircraft | A320/M-SDE3FGHIRWY/LB1 |
Departure
| Time | 2026-05-01 09:55 |
|---|---|
| Airport | Presidente Juscelino Kubitschek International Airport (SBBR) |
Arrival
| Time | 2026-05-01 10:30 |
|---|---|
| Airport | Ten. Cel. Aviador César Bombonato Airport (SBUL) |
| Time | Latitude | Longitude | Altitude | Speed | Heading |
|---|---|---|---|---|---|
| 2026-05-01 09:55 | -15.94611 | -47.86989 | 6854 ft | 282 kts | 168° |
| 2026-05-01 09:55 | -15.95905 | -47.86826 | 7365 ft | 285 kts | 168° |
| 2026-05-01 09:56 | -15.97889 | -47.86577 | 8211 ft | 288 kts | 168° |
| 2026-05-01 09:56 | -15.99892 | -47.86325 | 9007 ft | 292 kts | 168° |
| 2026-05-01 09:56 | -16.01952 | -47.86344 | 9748 ft | 304 kts | 187° |
| 2026-05-01 09:56 | -16.03988 | -47.87087 | 10342 ft | 318 kts | 199° |
| 2026-05-01 09:57 | -16.06101 | -47.88009 | 10510 ft | 341 kts | 199° |
| 2026-05-01 09:57 | -16.08339 | -47.88990 | 10903 ft | 353 kts | 199° |
| 2026-05-01 09:57 | -16.10618 | -47.90011 | 11509 ft | 358 kts | 200° |
| 2026-05-01 09:57 | -16.12913 | -47.91062 | 12172 ft | 361 kts | 201° |
| 2026-05-01 09:58 | -16.15185 | -47.92108 | 12805 ft | 363 kts | 201° |
| 2026-05-01 09:58 | -16.17506 | -47.93177 | 13445 ft | 366 kts | 201° |
| 2026-05-01 09:58 | -16.19845 | -47.94251 | 14066 ft | 368 kts | 201° |
| 2026-05-01 09:58 | -16.22198 | -47.95327 | 14620 ft | 371 kts | 201° |
| 2026-05-01 09:59 | -16.24571 | -47.96407 | 15166 ft | 374 kts | 201° |
| 2026-05-01 09:59 | -16.27015 | -47.97347 | 15705 ft | 374 kts | 192° |
| 2026-05-01 09:59 | -16.29548 | -47.98020 | 16255 ft | 377 kts | 192° |
| 2026-05-01 09:59 | -16.32100 | -47.98698 | 16802 ft | 380 kts | 192° |
| 2026-05-01 10:00 | -16.34678 | -47.99379 | 17341 ft | 382 kts | 192° |
| 2026-05-01 10:00 | -16.37270 | -48.00064 | 17870 ft | 386 kts | 192° |
| 2026-05-01 10:00 | -16.39881 | -48.00754 | 18394 ft | 389 kts | 192° |
| 2026-05-01 10:00 | -16.42515 | -48.01454 | 18854 ft | 392 kts | 192° |
| 2026-05-01 10:01 | -16.45134 | -48.02154 | 19306 ft | 395 kts | 192° |
| 2026-05-01 10:01 | -16.47802 | -48.02867 | 19783 ft | 397 kts | 192° |
| 2026-05-01 10:01 | -16.50493 | -48.03585 | 20253 ft | 400 kts | 192° |
| 2026-05-01 10:01 | -16.53207 | -48.04308 | 20729 ft | 403 kts | 192° |
| 2026-05-01 10:02 | -16.55938 | -48.05035 | 21211 ft | 406 kts | 192° |
| 2026-05-01 10:02 | -16.58683 | -48.05767 | 21673 ft | 409 kts | 193° |
| 2026-05-01 10:02 | -16.61451 | -48.06507 | 22143 ft | 411 kts | 193° |
| 2026-05-01 10:02 | -16.64233 | -48.07249 | 22619 ft | 414 kts | 193° |
| 2026-05-01 10:03 | -16.67040 | -48.07997 | 23080 ft | 417 kts | 193° |
| 2026-05-01 10:03 | -16.69864 | -48.08750 | 23536 ft | 420 kts | 193° |
| 2026-05-01 10:03 | -16.72710 | -48.09508 | 23920 ft | 423 kts | 193° |
| 2026-05-01 10:03 | -16.75568 | -48.10272 | 24063 ft | 424 kts | 193° |
| 2026-05-01 10:04 | -16.78359 | -48.11020 | 24106 ft | 413 kts | 193° |
| 2026-05-01 10:04 | -16.81127 | -48.11761 | 24111 ft | 409 kts | 193° |
| 2026-05-01 10:04 | -16.83875 | -48.12494 | 24111 ft | 407 kts | 193° |
| 2026-05-01 10:04 | -16.86623 | -48.13224 | 24110 ft | 407 kts | 193° |
| 2026-05-01 10:05 | -16.89367 | -48.13954 | 24108 ft | 407 kts | 193° |
| 2026-05-01 10:05 | -16.92111 | -48.14689 | 24106 ft | 407 kts | 193° |
| 2026-05-01 10:05 | -16.94857 | -48.15427 | 24106 ft | 407 kts | 193° |
| 2026-05-01 10:05 | -16.97595 | -48.16161 | 24106 ft | 407 kts | 193° |
| 2026-05-01 10:06 | -17.00337 | -48.16895 | 24108 ft | 407 kts | 193° |
| 2026-05-01 10:06 | -17.03084 | -48.17630 | 24108 ft | 407 kts | 193° |
| 2026-05-01 10:06 | -17.05828 | -48.18365 | 24108 ft | 406 kts | 193° |
| 2026-05-01 10:06 | -17.08535 | -48.19090 | 24107 ft | 406 kts | 193° |
| 2026-05-01 10:07 | -17.11278 | -48.19824 | 24102 ft | 406 kts | 193° |
| 2026-05-01 10:07 | -17.14023 | -48.20558 | 24103 ft | 406 kts | 193° |
| 2026-05-01 10:07 | -17.16760 | -48.21290 | 24103 ft | 406 kts | 193° |
| 2026-05-01 10:07 | -17.19497 | -48.22025 | 24104 ft | 406 kts | 193° |
| 2026-05-01 10:08 | -17.24967 | -48.23498 | 24103 ft | 405 kts | 193° |
| 2026-05-01 10:08 | -17.27667 | -48.24227 | 24103 ft | 405 kts | 193° |
| 2026-05-01 10:08 | -17.30404 | -48.24963 | 24102 ft | 405 kts | 193° |
| 2026-05-01 10:09 | -17.33133 | -48.25696 | 24098 ft | 405 kts | 193° |
| 2026-05-01 10:09 | -17.35867 | -48.26429 | 24097 ft | 405 kts | 193° |
| 2026-05-01 10:09 | -17.38600 | -48.27160 | 24096 ft | 405 kts | 193° |
| 2026-05-01 10:09 | -17.41331 | -48.27891 | 24091 ft | 405 kts | 193° |
| 2026-05-01 10:10 | -17.44059 | -48.28627 | 24093 ft | 405 kts | 193° |
| 2026-05-01 10:10 | -17.46793 | -48.29366 | 24092 ft | 405 kts | 193° |
| 2026-05-01 10:10 | -17.52219 | -48.30818 | 24091 ft | 405 kts | 193° |
| 2026-05-01 10:11 | -17.54950 | -48.31548 | 24086 ft | 405 kts | 193° |
| 2026-05-01 10:11 | -17.57680 | -48.32283 | 24086 ft | 405 kts | 193° |
| 2026-05-01 10:11 | -17.60416 | -48.33023 | 24087 ft | 405 kts | 193° |
| 2026-05-01 10:11 | -17.63143 | -48.33761 | 24088 ft | 405 kts | 193° |
| 2026-05-01 10:12 | -17.65876 | -48.34500 | 24089 ft | 405 kts | 193° |
| 2026-05-01 10:12 | -17.68611 | -48.35240 | 24090 ft | 405 kts | 194° |
| 2026-05-01 10:12 | -17.74081 | -48.36718 | 24091 ft | 405 kts | 194° |
| 2026-05-01 10:13 | -17.76813 | -48.37454 | 24092 ft | 405 kts | 194° |
| 2026-05-01 10:13 | -17.79545 | -48.38193 | 24092 ft | 405 kts | 194° |
| 2026-05-01 10:13 | -17.82278 | -48.38933 | 24092 ft | 405 kts | 194° |
| 2026-05-01 10:14 | -17.87708 | -48.40405 | 24088 ft | 405 kts | 194° |
| 2026-05-01 10:14 | -17.90438 | -48.41142 | 24089 ft | 405 kts | 194° |
| 2026-05-01 10:14 | -17.93175 | -48.41881 | 24088 ft | 405 kts | 194° |
| 2026-05-01 10:14 | -17.95910 | -48.42620 | 24088 ft | 405 kts | 194° |
| 2026-05-01 10:15 | -17.98640 | -48.43356 | 24088 ft | 405 kts | 194° |
| 2026-05-01 10:15 | -18.01338 | -48.44085 | 24090 ft | 404 kts | 194° |
| 2026-05-01 10:15 | -18.04062 | -48.44823 | 24089 ft | 404 kts | 194° |
| 2026-05-01 10:15 | -18.06782 | -48.45561 | 24089 ft | 404 kts | 194° |
| 2026-05-01 10:16 | -18.09504 | -48.46296 | 24090 ft | 404 kts | 194° |
| 2026-05-01 10:16 | -18.12233 | -48.47030 | 24090 ft | 403 kts | 194° |
| 2026-05-01 10:16 | -18.17671 | -48.48502 | 24088 ft | 403 kts | 194° |
| 2026-05-01 10:17 | -18.20380 | -48.49241 | 23934 ft | 400 kts | 194° |
| 2026-05-01 10:17 | -18.25774 | -48.50708 | 22847 ft | 397 kts | 194° |
| 2026-05-01 10:17 | -18.28416 | -48.51424 | 22349 ft | 395 kts | 194° |
| 2026-05-01 10:18 | -18.33722 | -48.52865 | 21346 ft | 391 kts | 194° |
| 2026-05-01 10:18 | -18.36361 | -48.53583 | 20853 ft | 390 kts | 194° |
| 2026-05-01 10:18 | -18.38957 | -48.54290 | 20364 ft | 388 kts | 194° |
| 2026-05-01 10:19 | -18.41578 | -48.55004 | 19870 ft | 387 kts | 194° |
| 2026-05-01 10:19 | -18.44182 | -48.55712 | 19380 ft | 386 kts | 194° |
| 2026-05-01 10:19 | -18.46780 | -48.56417 | 18896 ft | 385 kts | 194° |
| 2026-05-01 10:20 | -18.51938 | -48.57818 | 18054 ft | 378 kts | 194° |
| 2026-05-01 10:20 | -18.54447 | -48.58504 | 17519 ft | 377 kts | 194° |
| 2026-05-01 10:20 | -18.56981 | -48.59201 | 17019 ft | 375 kts | 194° |
| 2026-05-01 10:20 | -18.59503 | -48.59891 | 16637 ft | 371 kts | 194° |
| 2026-05-01 10:21 | -18.62009 | -48.60575 | 16160 ft | 370 kts | 194° |
| 2026-05-01 10:21 | -18.67030 | -48.60996 | 15362 ft | 362 kts | 168° |
| 2026-05-01 10:21 | -18.69393 | -48.60150 | 14919 ft | 359 kts | 151° |
| 2026-05-01 10:22 | -18.73337 | -48.56999 | 14006 ft | 352 kts | 139° |
| 2026-05-01 10:22 | -18.77023 | -48.53774 | 12850 ft | 330 kts | 139° |
| 2026-05-01 10:23 | -18.78770 | -48.52246 | 12435 ft | 325 kts | 139° |
| 2026-05-01 10:23 | -18.82254 | -48.49200 | 11568 ft | 324 kts | 139° |
| 2026-05-01 10:23 | -18.83992 | -48.47682 | 11133 ft | 324 kts | 139° |
| 2026-05-01 10:24 | -18.87456 | -48.44659 | 10403 ft | 318 kts | 138° |
| 2026-05-01 10:24 | -18.90665 | -48.41858 | 10347 ft | 286 kts | 138° |
| 2026-05-01 10:25 | -18.93695 | -48.39203 | 9087 ft | 283 kts | 137° |
| 2026-05-01 10:25 | -18.96690 | -48.36577 | 7977 ft | 272 kts | 137° |
| 2026-05-01 10:26 | -18.98127 | -48.35320 | 7499 ft | 264 kts | 136° |
| 2026-05-01 10:26 | -18.99522 | -48.34098 | 6967 ft | 257 kts | 136° |
| 2026-05-01 10:26 | -19.01570 | -48.31355 | 5987 ft | 231 kts | 97° |
| 2026-05-01 10:27 | -19.00754 | -48.28363 | 5409 ft | 211 kts | 46° |
| 2026-05-01 10:27 | -18.98219 | -48.26922 | 4994 ft | 205 kts | 25° |
| 2026-05-01 10:28 | -18.96939 | -48.26362 | 4743 ft | 194 kts | 25° |
| 2026-05-01 10:28 | -18.94661 | -48.25362 | 4269 ft | 159 kts | 25° |
| 2026-05-01 10:28 | -18.93689 | -48.24935 | 4104 ft | 150 kts | 26° |
| 2026-05-01 10:29 | -18.91835 | -48.24119 | 3706 ft | 142 kts | 25° |
| 2026-05-01 10:29 | -18.90920 | -48.23717 | 3515 ft | 143 kts | 25° |
| 2026-05-01 10:30 | -18.89061 | -48.22899 | 3116 ft | 143 kts | 26° |
| 2026-05-01 10:30 | -18.88000 | -48.22432 | 3108 ft | 39 kts | 22° |
| 2026-05-01 10:31 | -18.87585 | -48.22251 | 3110 ft | 27 kts | 23° |
| 2026-05-01 10:31 | -18.87448 | -48.22189 | 3109 ft | 2 kts | 281° |
| 2026-05-01 10:32 | -18.87535 | -48.22226 | 3110 ft | 13 kts | 203° |
| 2026-05-01 10:32 | -18.87619 | -48.22265 | 3110 ft | 13 kts | 204° |
| 2026-05-01 10:32 | -18.87766 | -48.22330 | 3110 ft | 10 kts | 202° |
| 2026-05-01 10:33 | -18.87941 | -48.22407 | 3108 ft | 18 kts | 202° |
| 2026-05-01 10:33 | -18.88198 | -48.22519 | 3107 ft | 22 kts | 202° |
| 2026-05-01 10:34 | -18.88341 | -48.22583 | 3109 ft | 23 kts | 203° |
| 2026-05-01 10:34 | -18.88488 | -48.22647 | 3109 ft | 24 kts | 202° |
| 2026-05-01 10:34 | -18.88631 | -48.22711 | 3109 ft | 21 kts | 202° |
| 2026-05-01 10:35 | -18.88808 | -48.22895 | 3108 ft | 15 kts | 244° |
| 2026-05-01 10:35 | -18.88885 | -48.22944 | 3108 ft | 13 kts | 201° |
| 2026-05-01 10:35 | -18.88964 | -48.22978 | 3107 ft | 11 kts | 207° |
| 2026-05-01 10:35 | -18.88970 | -48.23025 | 3108 ft | 2 kts | 292° |
| 2026-05-01 10:36 | -18.88968 | -48.23031 | 3108 ft | 0 kts | 290° |